sensor_id;sensor_type;location;lat;lon;timestamp;P1;durP1;ratioP1;P2;durP2;ratioP2
23310;SDS011;11828;51.508;18.118;2022-07-29T00:00:55;6.43;;;3.13;;
23310;SDS011;11828;51.508;18.118;2022-07-29T00:03:22;5.43;;;3.20;;
23310;SDS011;11828;51.508;18.118;2022-07-29T00:05:48;5.55;;;3.45;;
23310;SDS011;11828;51.508;18.118;2022-07-29T00:08:14;8.23;;;3.40;;
23310;SDS011;11828;51.508;18.118;2022-07-29T00:10:41;6.03;;;3.30;;
23310;SDS011;11828;51.508;18.118;2022-07-29T00:13:07;8.02;;;3.63;;
23310;SDS011;11828;51.508;18.118;2022-07-29T00:15:33;5.95;;;3.20;;
23310;SDS011;11828;51.508;18.118;2022-07-29T00:17:59;4.07;;;3.28;;
23310;SDS011;11828;51.508;18.118;2022-07-29T00:20:26;7.60;;;3.83;;
23310;SDS011;11828;51.508;18.118;2022-07-29T00:22:52;8.32;;;4.05;;
23310;SDS011;11828;51.508;18.118;2022-07-29T00:25:18;7.40;;;3.78;;
23310;SDS011;11828;51.508;18.118;2022-07-29T00:27:45;7.95;;;3.90;;
23310;SDS011;11828;51.508;18.118;2022-07-29T00:30:11;7.53;;;4.00;;
23310;SDS011;11828;51.508;18.118;2022-07-29T00:32:37;6.43;;;4.10;;
23310;SDS011;11828;51.508;18.118;2022-07-29T00:35:04;8.13;;;4.18;;
23310;SDS011;11828;51.508;18.118;2022-07-29T00:37:50;6.43;;;3.78;;
23310;SDS011;11828;51.508;18.118;2022-07-29T00:40:16;6.95;;;4.00;;
23310;SDS011;11828;51.508;18.118;2022-07-29T00:42:46;5.43;;;3.88;;
23310;SDS011;11828;51.508;18.118;2022-07-29T00:45:16;7.55;;;4.07;;
23310;SDS011;11828;51.508;18.118;2022-07-29T00:47:43;4.72;;;3.60;;
23310;SDS011;11828;51.508;18.118;2022-07-29T00:50:10;5.78;;;3.60;;
23310;SDS011;11828;51.508;18.118;2022-07-29T00:52:39;12.68;;;3.70;;
23310;SDS011;11828;51.508;18.118;2022-07-29T00:55:08;5.57;;;3.58;;
23310;SDS011;11828;51.508;18.118;2022-07-29T00:57:37;7.68;;;4.00;;
23310;SDS011;11828;51.508;18.118;2022-07-29T01:00:04;6.60;;;4.05;;
23310;SDS011;11828;51.508;18.118;2022-07-29T01:02:33;10.63;;;5.47;;
23310;SDS011;11828;51.508;18.118;2022-07-29T01:04:59;8.15;;;4.53;;
23310;SDS011;11828;51.508;18.118;2022-07-29T01:07:27;7.18;;;4.00;;
23310;SDS011;11828;51.508;18.118;2022-07-29T01:09:55;5.95;;;4.00;;
23310;SDS011;11828;51.508;18.118;2022-07-29T01:12:26;9.40;;;3.97;;
23310;SDS011;11828;51.508;18.118;2022-07-29T01:14:54;6.07;;;3.85;;
23310;SDS011;11828;51.508;18.118;2022-07-29T01:17:40;6.50;;;3.60;;
23310;SDS011;11828;51.508;18.118;2022-07-29T01:28:39;9.55;;;4.30;;
23310;SDS011;11828;51.508;18.118;2022-07-29T01:31:16;8.63;;;4.10;;
23310;SDS011;11828;51.508;18.118;2022-07-29T01:34:40;8.68;;;4.30;;
23310;SDS011;11828;51.508;18.118;2022-07-29T01:37:31;5.53;;;4.20;;
23310;SDS011;11828;51.508;18.118;2022-07-29T01:43:00;8.43;;;4.40;;
23310;SDS011;11828;51.508;18.118;2022-07-29T01:51:20;6.15;;;4.22;;
23310;SDS011;11828;51.508;18.118;2022-07-29T01:54:04;7.13;;;3.90;;
23310;SDS011;11828;51.508;18.118;2022-07-29T01:56:39;7.28;;;4.15;;
23310;SDS011;11828;51.508;18.118;2022-07-29T01:59:07;7.25;;;4.03;;
23310;SDS011;11828;51.508;18.118;2022-07-29T02:01:35;7.07;;;3.60;;
23310;SDS011;11828;51.508;18.118;2022-07-29T02:04:05;10.07;;;4.03;;
23310;SDS011;11828;51.508;18.118;2022-07-29T02:06:34;6.00;;;3.63;;
23310;SDS011;11828;51.508;18.118;2022-07-29T02:09:04;4.63;;;3.42;;
23310;SDS011;11828;51.508;18.118;2022-07-29T02:11:31;6.57;;;3.65;;
23310;SDS011;11828;51.508;18.118;2022-07-29T02:14:00;5.97;;;3.75;;
23310;SDS011;11828;51.508;18.118;2022-07-29T02:16:27;5.57;;;3.30;;
23310;SDS011;11828;51.508;18.118;2022-07-29T02:18:56;7.80;;;3.88;;
23310;SDS011;11828;51.508;18.118;2022-07-29T02:21:25;6.28;;;3.88;;
23310;SDS011;11828;51.508;18.118;2022-07-29T02:23:53;5.80;;;3.28;;
23310;SDS011;11828;51.508;18.118;2022-07-29T02:26:22;4.47;;;3.40;;
23310;SDS011;11828;51.508;18.118;2022-07-29T02:28:50;5.68;;;3.40;;
23310;SDS011;11828;51.508;18.118;2022-07-29T02:31:21;3.88;;;3.20;;
23310;SDS011;11828;51.508;18.118;2022-07-29T02:33:51;8.02;;;3.20;;
23310;SDS011;11828;51.508;18.118;2022-07-29T02:36:18;5.13;;;3.53;;
23310;SDS011;11828;51.508;18.118;2022-07-29T02:38:48;5.38;;;3.30;;
23310;SDS011;11828;51.508;18.118;2022-07-29T02:41:16;6.25;;;3.90;;
23310;SDS011;11828;51.508;18.118;2022-07-29T02:43:53;8.65;;;4.22;;
23310;SDS011;11828;51.508;18.118;2022-07-29T02:46:32;7.80;;;4.10;;
23310;SDS011;11828;51.508;18.118;2022-07-29T02:49:07;7.63;;;3.70;;
23310;SDS011;11828;51.508;18.118;2022-07-29T02:51:58;5.35;;;3.28;;
23310;SDS011;11828;51.508;18.118;2022-07-29T02:58:02;5.60;;;3.95;;
23310;SDS011;11828;51.508;18.118;2022-07-29T03:01:13;5.60;;;3.78;;
23310;SDS011;11828;51.508;18.118;2022-07-29T03:03:43;4.45;;;3.70;;
23310;SDS011;11828;51.508;18.118;2022-07-29T03:06:11;4.28;;;3.40;;
23310;SDS011;11828;51.508;18.118;2022-07-29T03:08:39;7.70;;;4.15;;
23310;SDS011;11828;51.508;18.118;2022-07-29T03:11:07;8.90;;;4.22;;
23310;SDS011;11828;51.508;18.118;2022-07-29T03:13:34;9.80;;;4.93;;
23310;SDS011;11828;51.508;18.118;2022-07-29T03:16:01;11.90;;;5.45;;
23310;SDS011;11828;51.508;18.118;2022-07-29T03:18:30;9.07;;;5.10;;
23310;SDS011;11828;51.508;18.118;2022-07-29T03:20:57;8.95;;;5.70;;
23310;SDS011;11828;51.508;18.118;2022-07-29T03:23:23;9.82;;;5.20;;
23310;SDS011;11828;51.508;18.118;2022-07-29T03:25:51;10.43;;;5.75;;
23310;SDS011;11828;51.508;18.118;2022-07-29T03:28:19;10.20;;;5.80;;
23310;SDS011;11828;51.508;18.118;2022-07-29T03:30:46;8.52;;;5.47;;
23310;SDS011;11828;51.508;18.118;2022-07-29T03:33:12;13.10;;;5.28;;
23310;SDS011;11828;51.508;18.118;2022-07-29T03:35:39;12.57;;;5.15;;
23310;SDS011;11828;51.508;18.118;2022-07-29T03:38:05;7.93;;;4.68;;
23310;SDS011;11828;51.508;18.118;2022-07-29T03:40:43;9.95;;;4.53;;
23310;SDS011;11828;51.508;18.118;2022-07-29T03:43:15;10.55;;;4.60;;
23310;SDS011;11828;51.508;18.118;2022-07-29T03:45:44;8.98;;;4.75;;
23310;SDS011;11828;51.508;18.118;2022-07-29T03:48:14;8.02;;;4.70;;
23310;SDS011;11828;51.508;18.118;2022-07-29T03:50:43;6.25;;;4.47;;
23310;SDS011;11828;51.508;18.118;2022-07-29T03:53:10;7.47;;;4.40;;
23310;SDS011;11828;51.508;18.118;2022-07-29T03:55:37;8.38;;;4.40;;
23310;SDS011;11828;51.508;18.118;2022-07-29T03:58:09;8.10;;;4.28;;
23310;SDS011;11828;51.508;18.118;2022-07-29T04:00:38;8.65;;;4.72;;
23310;SDS011;11828;51.508;18.118;2022-07-29T04:03:05;6.70;;;4.53;;
23310;SDS011;11828;51.508;18.118;2022-07-29T04:05:32;7.75;;;4.60;;
23310;SDS011;11828;51.508;18.118;2022-07-29T04:07:58;7.00;;;4.47;;
23310;SDS011;11828;51.508;18.118;2022-07-29T04:10:24;7.90;;;4.25;;
23310;SDS011;11828;51.508;18.118;2022-07-29T04:12:50;7.85;;;4.00;;
23310;SDS011;11828;51.508;18.118;2022-07-29T04:15:17;6.95;;;4.20;;
23310;SDS011;11828;51.508;18.118;2022-07-29T04:17:43;7.00;;;4.45;;
23310;SDS011;11828;51.508;18.118;2022-07-29T04:20:10;5.63;;;4.22;;
23310;SDS011;11828;51.508;18.118;2022-07-29T04:22:40;8.88;;;4.57;;
23310;SDS011;11828;51.508;18.118;2022-07-29T04:25:07;7.00;;;4.32;;
23310;SDS011;11828;51.508;18.118;2022-07-29T04:27:33;7.78;;;4.18;;
23310;SDS011;11828;51.508;18.118;2022-07-29T04:29:59;7.70;;;4.10;;
23310;SDS011;11828;51.508;18.118;2022-07-29T04:32:26;6.57;;;4.40;;
23310;SDS011;11828;51.508;18.118;2022-07-29T04:34:52;9.27;;;4.80;;
23310;SDS011;11828;51.508;18.118;2022-07-29T04:37:18;7.28;;;4.43;;
23310;SDS011;11828;51.508;18.118;2022-07-29T04:39:44;8.20;;;4.22;;
23310;SDS011;11828;51.508;18.118;2022-07-29T04:42:11;10.50;;;4.38;;
23310;SDS011;11828;51.508;18.118;2022-07-29T04:44:37;6.57;;;4.53;;
23310;SDS011;11828;51.508;18.118;2022-07-29T04:47:03;6.80;;;4.53;;
23310;SDS011;11828;51.508;18.118;2022-07-29T04:49:29;10.98;;;5.05;;
23310;SDS011;11828;51.508;18.118;2022-07-29T04:51:55;5.57;;;4.22;;
23310;SDS011;11828;51.508;18.118;2022-07-29T04:54:21;7.72;;;3.90;;
23310;SDS011;11828;51.508;18.118;2022-07-29T04:56:47;9.13;;;4.72;;
23310;SDS011;11828;51.508;18.118;2022-07-29T04:59:13;5.75;;;4.00;;
23310;SDS011;11828;51.508;18.118;2022-07-29T05:01:39;6.95;;;3.60;;
23310;SDS011;11828;51.508;18.118;2022-07-29T05:04:06;6.22;;;3.75;;
23310;SDS011;11828;51.508;18.118;2022-07-29T05:06:32;7.72;;;4.18;;
23310;SDS011;11828;51.508;18.118;2022-07-29T05:08:58;6.32;;;3.92;;
23310;SDS011;11828;51.508;18.118;2022-07-29T05:11:25;4.43;;;3.58;;
23310;SDS011;11828;51.508;18.118;2022-07-29T05:13:51;4.78;;;3.60;;
23310;SDS011;11828;51.508;18.118;2022-07-29T05:16:17;5.13;;;3.88;;
23310;SDS011;11828;51.508;18.118;2022-07-29T05:18:43;5.75;;;3.85;;
23310;SDS011;11828;51.508;18.118;2022-07-29T05:21:09;5.95;;;3.55;;
23310;SDS011;11828;51.508;18.118;2022-07-29T05:23:35;5.35;;;3.30;;
23310;SDS011;11828;51.508;18.118;2022-07-29T05:26:01;6.38;;;3.22;;
23310;SDS011;11828;51.508;18.118;2022-07-29T05:28:27;4.32;;;3.35;;
23310;SDS011;11828;51.508;18.118;2022-07-29T05:30:53;4.22;;;3.25;;
23310;SDS011;11828;51.508;18.118;2022-07-29T05:33:20;5.75;;;3.33;;
23310;SDS011;11828;51.508;18.118;2022-07-29T05:35:45;4.47;;;3.60;;
23310;SDS011;11828;51.508;18.118;2022-07-29T05:38:11;5.95;;;3.33;;
23310;SDS011;11828;51.508;18.118;2022-07-29T05:40:38;4.22;;;3.28;;
23310;SDS011;11828;51.508;18.118;2022-07-29T05:43:04;4.93;;;3.50;;
23310;SDS011;11828;51.508;18.118;2022-07-29T05:45:29;3.67;;;2.95;;
23310;SDS011;11828;51.508;18.118;2022-07-29T05:47:56;5.68;;;3.70;;
23310;SDS011;11828;51.508;18.118;2022-07-29T05:50:22;5.72;;;3.22;;
23310;SDS011;11828;51.508;18.118;2022-07-29T05:52:48;6.22;;;3.35;;
23310;SDS011;11828;51.508;18.118;2022-07-29T05:55:14;4.82;;;3.05;;
23310;SDS011;11828;51.508;18.118;2022-07-29T05:57:40;4.47;;;3.00;;
23310;SDS011;11828;51.508;18.118;2022-07-29T06:00:08;4.38;;;2.85;;
23310;SDS011;11828;51.508;18.118;2022-07-29T06:02:35;5.97;;;2.58;;
23310;SDS011;11828;51.508;18.118;2022-07-29T06:05:02;3.97;;;2.30;;
23310;SDS011;11828;51.508;18.118;2022-07-29T06:07:28;3.92;;;2.33;;
23310;SDS011;11828;51.508;18.118;2022-07-29T06:09:54;4.03;;;2.38;;
23310;SDS011;11828;51.508;18.118;2022-07-29T06:12:21;4.75;;;2.63;;
23310;SDS011;11828;51.508;18.118;2022-07-29T06:14:47;3.88;;;2.50;;
23310;SDS011;11828;51.508;18.118;2022-07-29T06:17:15;3.13;;;2.40;;
23310;SDS011;11828;51.508;18.118;2022-07-29T06:19:41;3.92;;;2.03;;
23310;SDS011;11828;51.508;18.118;2022-07-29T06:22:07;4.15;;;2.10;;
23310;SDS011;11828;51.508;18.118;2022-07-29T06:24:34;4.28;;;2.08;;
23310;SDS011;11828;51.508;18.118;2022-07-29T06:27:05;4.10;;;2.08;;
23310;SDS011;11828;51.508;18.118;2022-07-29T06:29:30;3.35;;;2.20;;
23310;SDS011;11828;51.508;18.118;2022-07-29T06:31:57;6.90;;;2.10;;
23310;SDS011;11828;51.508;18.118;2022-07-29T06:34:23;5.20;;;2.13;;
23310;SDS011;11828;51.508;18.118;2022-07-29T06:36:49;5.15;;;1.73;;
23310;SDS011;11828;51.508;18.118;2022-07-29T06:39:15;5.57;;;2.10;;
23310;SDS011;11828;51.508;18.118;2022-07-29T06:41:41;2.28;;;1.60;;
23310;SDS011;11828;51.508;18.118;2022-07-29T06:44:07;5.40;;;1.90;;
23310;SDS011;11828;51.508;18.118;2022-07-29T06:46:33;4.95;;;1.90;;
23310;SDS011;11828;51.508;18.118;2022-07-29T06:48:59;2.97;;;1.70;;
23310;SDS011;11828;51.508;18.118;2022-07-29T06:51:26;2.28;;;1.52;;
23310;SDS011;11828;51.508;18.118;2022-07-29T06:53:52;2.10;;;1.60;;
23310;SDS011;11828;51.508;18.118;2022-07-29T06:56:18;2.55;;;1.42;;
23310;SDS011;11828;51.508;18.118;2022-07-29T06:58:45;2.45;;;1.60;;
23310;SDS011;11828;51.508;18.118;2022-07-29T07:01:11;2.70;;;1.60;;
23310;SDS011;11828;51.508;18.118;2022-07-29T07:03:37;2.05;;;1.52;;
23310;SDS011;11828;51.508;18.118;2022-07-29T07:06:03;2.88;;;1.80;;
23310;SDS011;11828;51.508;18.118;2022-07-29T07:08:29;1.70;;;1.38;;
23310;SDS011;11828;51.508;18.118;2022-07-29T07:10:56;5.20;;;1.88;;
23310;SDS011;11828;51.508;18.118;2022-07-29T07:13:22;3.95;;;1.80;;
23310;SDS011;11828;51.508;18.118;2022-07-29T07:15:48;3.53;;;1.70;;
23310;SDS011;11828;51.508;18.118;2022-07-29T07:18:15;2.60;;;1.70;;
23310;SDS011;11828;51.508;18.118;2022-07-29T07:20:42;2.63;;;1.52;;
23310;SDS011;11828;51.508;18.118;2022-07-29T07:23:09;2.15;;;1.55;;
23310;SDS011;11828;51.508;18.118;2022-07-29T07:25:36;1.50;;;1.35;;
23310;SDS011;11828;51.508;18.118;2022-07-29T07:28:02;3.88;;;1.40;;
23310;SDS011;11828;51.508;18.118;2022-07-29T07:30:28;2.58;;;1.50;;
23310;SDS011;11828;51.508;18.118;2022-07-29T07:32:54;2.97;;;1.55;;
23310;SDS011;11828;51.508;18.118;2022-07-29T07:35:21;2.22;;;1.20;;
23310;SDS011;11828;51.508;18.118;2022-07-29T07:37:48;1.38;;;1.10;;
23310;SDS011;11828;51.508;18.118;2022-07-29T07:40:14;4.13;;;1.75;;
23310;SDS011;11828;51.508;18.118;2022-07-29T07:42:40;4.60;;;1.38;;
23310;SDS011;11828;51.508;18.118;2022-07-29T07:45:07;3.67;;;1.50;;
23310;SDS011;11828;51.508;18.118;2022-07-29T07:47:35;2.08;;;1.23;;
23310;SDS011;11828;51.508;18.118;2022-07-29T07:50:05;2.58;;;1.52;;
23310;SDS011;11828;51.508;18.118;2022-07-29T07:52:34;4.90;;;1.60;;
23310;SDS011;11828;51.508;18.118;2022-07-29T07:55:02;3.35;;;1.45;;
23310;SDS011;11828;51.508;18.118;2022-07-29T07:57:29;1.38;;;1.15;;
23310;SDS011;11828;51.508;18.118;2022-07-29T07:59:55;2.45;;;1.40;;
23310;SDS011;11828;51.508;18.118;2022-07-29T08:02:21;2.13;;;1.20;;
23310;SDS011;11828;51.508;18.118;2022-07-29T08:04:47;4.53;;;1.80;;
23310;SDS011;11828;51.508;18.118;2022-07-29T08:07:13;2.50;;;1.30;;
23310;SDS011;11828;51.508;18.118;2022-07-29T08:09:40;1.83;;;1.52;;
23310;SDS011;11828;51.508;18.118;2022-07-29T08:12:06;2.40;;;1.27;;
23310;SDS011;11828;51.508;18.118;2022-07-29T08:14:32;1.98;;;1.52;;
23310;SDS011;11828;51.508;18.118;2022-07-29T08:16:58;1.80;;;1.30;;
23310;SDS011;11828;51.508;18.118;2022-07-29T08:19:25;2.70;;;1.30;;
23310;SDS011;11828;51.508;18.118;2022-07-29T08:21:51;1.75;;;1.30;;
23310;SDS011;11828;51.508;18.118;2022-07-29T08:24:18;3.20;;;1.50;;
23310;SDS011;11828;51.508;18.118;2022-07-29T08:27:03;3.13;;;1.40;;
23310;SDS011;11828;51.508;18.118;2022-07-29T08:29:30;4.35;;;1.30;;
23310;SDS011;11828;51.508;18.118;2022-07-29T08:31:56;2.03;;;1.20;;
23310;SDS011;11828;51.508;18.118;2022-07-29T08:34:22;1.98;;;1.45;;
23310;SDS011;11828;51.508;18.118;2022-07-29T08:36:48;4.57;;;1.67;;
23310;SDS011;11828;51.508;18.118;2022-07-29T08:39:14;3.83;;;2.55;;
23310;SDS011;11828;51.508;18.118;2022-07-29T08:41:40;1.95;;;1.70;;
23310;SDS011;11828;51.508;18.118;2022-07-29T08:44:06;1.67;;;1.25;;
23310;SDS011;11828;51.508;18.118;2022-07-29T08:46:32;2.15;;;1.38;;
23310;SDS011;11828;51.508;18.118;2022-07-29T08:48:59;2.05;;;1.35;;
23310;SDS011;11828;51.508;18.118;2022-07-29T08:51:26;2.15;;;1.30;;
23310;SDS011;11828;51.508;18.118;2022-07-29T08:53:53;1.67;;;1.23;;
23310;SDS011;11828;51.508;18.118;2022-07-29T08:56:20;3.60;;;1.30;;
23310;SDS011;11828;51.508;18.118;2022-07-29T08:58:47;4.20;;;1.60;;
23310;SDS011;11828;51.508;18.118;2022-07-29T09:01:16;2.78;;;1.48;;
23310;SDS011;11828;51.508;18.118;2022-07-29T09:03:47;1.90;;;1.42;;
23310;SDS011;11828;51.508;18.118;2022-07-29T09:06:17;2.47;;;1.40;;
23310;SDS011;11828;51.508;18.118;2022-07-29T09:08:44;2.72;;;1.65;;
23310;SDS011;11828;51.508;18.118;2022-07-29T09:11:11;1.70;;;1.33;;
23310;SDS011;11828;51.508;18.118;2022-07-29T09:13:38;2.65;;;1.75;;
23310;SDS011;11828;51.508;18.118;2022-07-29T09:16:04;2.03;;;1.40;;
23310;SDS011;11828;51.508;18.118;2022-07-29T09:18:41;2.53;;;1.50;;
23310;SDS011;11828;51.508;18.118;2022-07-29T09:21:10;2.25;;;1.50;;
23310;SDS011;11828;51.508;18.118;2022-07-29T09:24:01;3.53;;;1.80;;
23310;SDS011;11828;51.508;18.118;2022-07-29T09:26:37;5.38;;;1.52;;
23310;SDS011;11828;51.508;18.118;2022-07-29T09:29:14;4.38;;;1.52;;
23310;SDS011;11828;51.508;18.118;2022-07-29T09:31:43;4.10;;;2.00;;
23310;SDS011;11828;51.508;18.118;2022-07-29T09:34:13;3.55;;;2.40;;
23310;SDS011;11828;51.508;18.118;2022-07-29T09:36:48;2.20;;;1.92;;
23310;SDS011;11828;51.508;18.118;2022-07-29T09:39:26;2.83;;;1.60;;
23310;SDS011;11828;51.508;18.118;2022-07-29T09:41:57;4.43;;;2.95;;
23310;SDS011;11828;51.508;18.118;2022-07-29T09:44:25;2.70;;;2.22;;
23310;SDS011;11828;51.508;18.118;2022-07-29T09:46:53;3.13;;;2.42;;
23310;SDS011;11828;51.508;18.118;2022-07-29T09:49:32;3.15;;;1.95;;
23310;SDS011;11828;51.508;18.118;2022-07-29T09:52:19;2.72;;;1.70;;
23310;SDS011;11828;51.508;18.118;2022-07-29T09:54:47;2.42;;;1.67;;
23310;SDS011;11828;51.508;18.118;2022-07-29T09:57:26;3.03;;;1.90;;
23310;SDS011;11828;51.508;18.118;2022-07-29T10:00:01;3.38;;;1.85;;
23310;SDS011;11828;51.508;18.118;2022-07-29T10:02:32;5.13;;;1.60;;
23310;SDS011;11828;51.508;18.118;2022-07-29T10:05:01;4.40;;;1.88;;
23310;SDS011;11828;51.508;18.118;2022-07-29T10:10:22;2.28;;;1.70;;
23310;SDS011;11828;51.508;18.118;2022-07-29T10:12:58;4.13;;;1.80;;
23310;SDS011;11828;51.508;18.118;2022-07-29T10:15:34;4.85;;;1.70;;
23310;SDS011;11828;51.508;18.118;2022-07-29T10:18:04;1.98;;;1.67;;
23310;SDS011;11828;51.508;18.118;2022-07-29T10:20:31;2.83;;;1.60;;
23310;SDS011;11828;51.508;18.118;2022-07-29T10:22:58;4.43;;;1.70;;
23310;SDS011;11828;51.508;18.118;2022-07-29T10:25:25;2.35;;;1.60;;
23310;SDS011;11828;51.508;18.118;2022-07-29T10:27:52;2.08;;;1.50;;
23310;SDS011;11828;51.508;18.118;2022-07-29T10:30:19;3.38;;;1.60;;
23310;SDS011;11828;51.508;18.118;2022-07-29T10:41:39;3.15;;;1.80;;
23310;SDS011;11828;51.508;18.118;2022-07-29T10:44:31;3.08;;;1.80;;
23310;SDS011;11828;51.508;18.118;2022-07-29T10:46:58;3.00;;;1.63;;
23310;SDS011;11828;51.508;18.118;2022-07-29T10:49:26;2.40;;;1.50;;
23310;SDS011;11828;51.508;18.118;2022-07-29T10:51:58;3.30;;;1.65;;
23310;SDS011;11828;51.508;18.118;2022-07-29T10:59:40;1.77;;;1.40;;
23310;SDS011;11828;51.508;18.118;2022-07-29T11:05:08;3.10;;;2.03;;
23310;SDS011;11828;51.508;18.118;2022-07-29T11:07:37;1.80;;;1.48;;
23310;SDS011;11828;51.508;18.118;2022-07-29T11:10:25;2.60;;;1.40;;
23310;SDS011;11828;51.508;18.118;2022-07-29T11:12:51;1.88;;;1.58;;
23310;SDS011;11828;51.508;18.118;2022-07-29T11:15:18;3.35;;;1.80;;
23310;SDS011;11828;51.508;18.118;2022-07-29T11:23:21;2.65;;;1.98;;
23310;SDS011;11828;51.508;18.118;2022-07-29T11:34:18;2.70;;;1.75;;
23310;SDS011;11828;51.508;18.118;2022-07-29T11:39:35;1.98;;;1.67;;
23310;SDS011;11828;51.508;18.118;2022-07-29T11:44:57;5.10;;;1.85;;
23310;SDS011;11828;51.508;18.118;2022-07-29T11:47:33;1.80;;;1.70;;
23310;SDS011;11828;51.508;18.118;2022-07-29T11:50:26;2.65;;;1.70;;
23310;SDS011;11828;51.508;18.118;2022-07-29T11:52:56;2.30;;;1.70;;
23310;SDS011;11828;51.508;18.118;2022-07-29T11:55:23;4.22;;;1.90;;
23310;SDS011;11828;51.508;18.118;2022-07-29T11:57:57;1.90;;;1.70;;
23310;SDS011;11828;51.508;18.118;2022-07-29T12:00:29;3.63;;;1.80;;
23310;SDS011;11828;51.508;18.118;2022-07-29T12:02:57;2.03;;;1.67;;
23310;SDS011;11828;51.508;18.118;2022-07-29T12:05:32;3.35;;;1.58;;
23310;SDS011;11828;51.508;18.118;2022-07-29T12:08:18;2.25;;;1.73;;
23310;SDS011;11828;51.508;18.118;2022-07-29T12:10:47;2.20;;;1.48;;
23310;SDS011;11828;51.508;18.118;2022-07-29T12:13:16;3.83;;;1.98;;
23310;SDS011;11828;51.508;18.118;2022-07-29T12:15:54;2.88;;;1.92;;
23310;SDS011;11828;51.508;18.118;2022-07-29T12:18:25;1.95;;;1.70;;
23310;SDS011;11828;51.508;18.118;2022-07-29T12:20:58;2.33;;;1.90;;
23310;SDS011;11828;51.508;18.118;2022-07-29T12:23:30;2.50;;;1.60;;
23310;SDS011;11828;51.508;18.118;2022-07-29T12:25:57;5.32;;;2.15;;
23310;SDS011;11828;51.508;18.118;2022-07-29T12:28:24;4.40;;;2.25;;
23310;SDS011;11828;51.508;18.118;2022-07-29T12:30:51;3.05;;;1.90;;
23310;SDS011;11828;51.508;18.118;2022-07-29T12:33:19;1.95;;;1.55;;
23310;SDS011;11828;51.508;18.118;2022-07-29T12:35:54;3.92;;;1.65;;
23310;SDS011;11828;51.508;18.118;2022-07-29T12:38:24;2.05;;;1.60;;
23310;SDS011;11828;51.508;18.118;2022-07-29T12:40:51;2.60;;;1.77;;
23310;SDS011;11828;51.508;18.118;2022-07-29T12:43:20;3.20;;;2.03;;
23310;SDS011;11828;51.508;18.118;2022-07-29T12:45:54;2.92;;;2.28;;
23310;SDS011;11828;51.508;18.118;2022-07-29T12:48:32;2.72;;;2.13;;
23310;SDS011;11828;51.508;18.118;2022-07-29T12:51:03;3.38;;;1.70;;
23310;SDS011;11828;51.508;18.118;2022-07-29T12:53:32;5.13;;;1.90;;
23310;SDS011;11828;51.508;18.118;2022-07-29T12:55:58;2.63;;;1.90;;
23310;SDS011;11828;51.508;18.118;2022-07-29T13:03:54;3.85;;;2.10;;
23310;SDS011;11828;51.508;18.118;2022-07-29T13:06:28;2.20;;;1.67;;
23310;SDS011;11828;51.508;18.118;2022-07-29T13:09:08;2.45;;;2.00;;
23310;SDS011;11828;51.508;18.118;2022-07-29T13:11:46;2.60;;;2.10;;
23310;SDS011;11828;51.508;18.118;2022-07-29T13:14:36;3.35;;;2.33;;
23310;SDS011;11828;51.508;18.118;2022-07-29T13:17:20;3.17;;;2.20;;
23310;SDS011;11828;51.508;18.118;2022-07-29T13:20:03;1.92;;;1.70;;
23310;SDS011;11828;51.508;18.118;2022-07-29T13:22:34;4.55;;;1.60;;
23310;SDS011;11828;51.508;18.118;2022-07-29T13:25:01;3.50;;;1.90;;
23310;SDS011;11828;51.508;18.118;2022-07-29T13:27:29;2.90;;;2.00;;
23310;SDS011;11828;51.508;18.118;2022-07-29T13:30:00;4.28;;;2.08;;
23310;SDS011;11828;51.508;18.118;2022-07-29T13:32:29;3.20;;;2.53;;
23310;SDS011;11828;51.508;18.118;2022-07-29T13:34:57;6.28;;;2.70;;
23310;SDS011;11828;51.508;18.118;2022-07-29T13:37:25;3.67;;;2.40;;
23310;SDS011;11828;51.508;18.118;2022-07-29T13:39:54;4.95;;;2.70;;
23310;SDS011;11828;51.508;18.118;2022-07-29T13:42:22;5.93;;;3.10;;
23310;SDS011;11828;51.508;18.118;2022-07-29T13:44:48;3.40;;;2.38;;
23310;SDS011;11828;51.508;18.118;2022-07-29T13:47:20;4.75;;;2.72;;
23310;SDS011;11828;51.508;18.118;2022-07-29T13:49:47;3.05;;;2.45;;
23310;SDS011;11828;51.508;18.118;2022-07-29T13:52:14;3.72;;;2.28;;
23310;SDS011;11828;51.508;18.118;2022-07-29T13:54:41;4.85;;;2.30;;
23310;SDS011;11828;51.508;18.118;2022-07-29T13:57:08;2.75;;;2.03;;
23310;SDS011;11828;51.508;18.118;2022-07-29T13:59:38;3.92;;;2.10;;
23310;SDS011;11828;51.508;18.118;2022-07-29T14:02:05;2.75;;;2.05;;
23310;SDS011;11828;51.508;18.118;2022-07-29T14:04:32;4.72;;;2.25;;
23310;SDS011;11828;51.508;18.118;2022-07-29T14:06:59;2.55;;;2.05;;
23310;SDS011;11828;51.508;18.118;2022-07-29T14:09:25;2.95;;;1.80;;
23310;SDS011;11828;51.508;18.118;2022-07-29T14:11:51;3.72;;;2.10;;
23310;SDS011;11828;51.508;18.118;2022-07-29T14:14:18;3.00;;;2.13;;
23310;SDS011;11828;51.508;18.118;2022-07-29T14:16:45;2.75;;;1.90;;
23310;SDS011;11828;51.508;18.118;2022-07-29T14:19:11;4.63;;;1.85;;
23310;SDS011;11828;51.508;18.118;2022-07-29T14:21:38;3.67;;;2.20;;
23310;SDS011;11828;51.508;18.118;2022-07-29T14:24:05;3.10;;;2.13;;
23310;SDS011;11828;51.508;18.118;2022-07-29T14:26:31;2.75;;;1.98;;
23310;SDS011;11828;51.508;18.118;2022-07-29T14:28:58;3.08;;;1.88;;
23310;SDS011;11828;51.508;18.118;2022-07-29T14:31:24;2.33;;;1.92;;
23310;SDS011;11828;51.508;18.118;2022-07-29T14:33:50;2.08;;;1.67;;
23310;SDS011;11828;51.508;18.118;2022-07-29T14:36:16;6.70;;;1.92;;
23310;SDS011;11828;51.508;18.118;2022-07-29T14:38:42;2.53;;;2.05;;
23310;SDS011;11828;51.508;18.118;2022-07-29T14:41:08;2.83;;;2.45;;
23310;SDS011;11828;51.508;18.118;2022-07-29T14:43:34;4.28;;;2.22;;
23310;SDS011;11828;51.508;18.118;2022-07-29T14:46:01;3.80;;;1.98;;
23310;SDS011;11828;51.508;18.118;2022-07-29T14:48:27;4.90;;;2.08;;
23310;SDS011;11828;51.508;18.118;2022-07-29T14:50:53;5.03;;;2.50;;
23310;SDS011;11828;51.508;18.118;2022-07-29T14:53:21;2.42;;;2.10;;
23310;SDS011;11828;51.508;18.118;2022-07-29T14:55:47;3.47;;;2.10;;
23310;SDS011;11828;51.508;18.118;2022-07-29T14:58:14;4.47;;;2.00;;
23310;SDS011;11828;51.508;18.118;2022-07-29T15:00:40;2.63;;;1.90;;
23310;SDS011;11828;51.508;18.118;2022-07-29T15:03:06;2.22;;;2.03;;
23310;SDS011;11828;51.508;18.118;2022-07-29T15:05:35;3.78;;;2.40;;
23310;SDS011;11828;51.508;18.118;2022-07-29T15:08:01;2.53;;;1.88;;
23310;SDS011;11828;51.508;18.118;2022-07-29T15:10:28;3.28;;;2.15;;
23310;SDS011;11828;51.508;18.118;2022-07-29T15:12:55;3.42;;;2.10;;
23310;SDS011;11828;51.508;18.118;2022-07-29T15:15:21;4.00;;;2.10;;
23310;SDS011;11828;51.508;18.118;2022-07-29T15:17:47;2.85;;;2.30;;
23310;SDS011;11828;51.508;18.118;2022-07-29T15:20:14;3.83;;;2.58;;
23310;SDS011;11828;51.508;18.118;2022-07-29T15:22:40;3.28;;;2.30;;
23310;SDS011;11828;51.508;18.118;2022-07-29T15:25:08;2.40;;;2.03;;
23310;SDS011;11828;51.508;18.118;2022-07-29T15:27:34;7.70;;;2.10;;
23310;SDS011;11828;51.508;18.118;2022-07-29T15:30:01;2.33;;;1.88;;
23310;SDS011;11828;51.508;18.118;2022-07-29T15:32:27;2.90;;;1.70;;
23310;SDS011;11828;51.508;18.118;2022-07-29T15:34:53;2.75;;;1.73;;
23310;SDS011;11828;51.508;18.118;2022-07-29T15:37:19;3.95;;;1.77;;
23310;SDS011;11828;51.508;18.118;2022-07-29T15:39:45;4.28;;;2.10;;
23310;SDS011;11828;51.508;18.118;2022-07-29T15:42:12;2.95;;;1.90;;
23310;SDS011;11828;51.508;18.118;2022-07-29T15:44:38;1.88;;;1.70;;
23310;SDS011;11828;51.508;18.118;2022-07-29T15:47:04;2.65;;;1.88;;
23310;SDS011;11828;51.508;18.118;2022-07-29T15:49:35;3.38;;;1.90;;